sensor_id;sensor_type;location;lat;lon;timestamp;P1;durP1;ratioP1;P2;durP2;ratioP2
30378;SDS011;17168;49.164;9.060;2023-09-19T00:02:29;2.13;;;0.73;;
30378;SDS011;17168;49.164;9.060;2023-09-19T00:05:02;2.45;;;0.55;;
30378;SDS011;17168;49.164;9.060;2023-09-19T00:07:36;1.95;;;0.68;;
30378;SDS011;17168;49.164;9.060;2023-09-19T00:10:09;4.65;;;1.13;;
30378;SDS011;17168;49.164;9.060;2023-09-19T00:12:45;2.88;;;0.60;;
30378;SDS011;17168;49.164;9.060;2023-09-19T00:15:17;3.22;;;0.88;;
30378;SDS011;17168;49.164;9.060;2023-09-19T00:17:51;3.38;;;1.08;;
30378;SDS011;17168;49.164;9.060;2023-09-19T00:20:26;2.20;;;0.68;;
30378;SDS011;17168;49.164;9.060;2023-09-19T00:22:59;5.82;;;0.82;;
30378;SDS011;17168;49.164;9.060;2023-09-19T00:25:39;3.67;;;0.80;;
30378;SDS011;17168;49.164;9.060;2023-09-19T00:28:16;2.65;;;0.82;;
30378;SDS011;17168;49.164;9.060;2023-09-19T00:30:50;1.75;;;0.45;;
30378;SDS011;17168;49.164;9.060;2023-09-19T00:33:22;1.88;;;0.65;;
30378;SDS011;17168;49.164;9.060;2023-09-19T00:35:56;2.75;;;0.90;;
30378;SDS011;17168;49.164;9.060;2023-09-19T00:38:33;4.00;;;1.00;;
30378;SDS011;17168;49.164;9.060;2023-09-19T00:41:05;4.03;;;0.73;;
30378;SDS011;17168;49.164;9.060;2023-09-19T00:43:43;3.38;;;1.20;;
30378;SDS011;17168;49.164;9.060;2023-09-19T00:46:16;2.00;;;0.70;;
30378;SDS011;17168;49.164;9.060;2023-09-19T00:48:49;3.17;;;0.70;;
30378;SDS011;17168;49.164;9.060;2023-09-19T00:51:21;2.30;;;0.80;;
30378;SDS011;17168;49.164;9.060;2023-09-19T00:53:54;3.28;;;0.55;;
30378;SDS011;17168;49.164;9.060;2023-09-19T00:56:27;3.60;;;0.60;;
30378;SDS011;17168;49.164;9.060;2023-09-19T00:59:02;3.33;;;0.45;;
30378;SDS011;17168;49.164;9.060;2023-09-19T01:01:34;2.55;;;0.60;;
30378;SDS011;17168;49.164;9.060;2023-09-19T01:04:08;1.60;;;0.45;;
30378;SDS011;17168;49.164;9.060;2023-09-19T01:06:41;1.27;;;0.30;;
30378;SDS011;17168;49.164;9.060;2023-09-19T01:09:13;1.45;;;0.17;;
30378;SDS011;17168;49.164;9.060;2023-09-19T01:11:46;1.20;;;0.55;;
30378;SDS011;17168;49.164;9.060;2023-09-19T01:17:25;1.33;;;0.43;;
30378;SDS011;17168;49.164;9.060;2023-09-19T01:23:00;2.47;;;0.32;;
30378;SDS011;17168;49.164;9.060;2023-09-19T01:25:56;1.95;;;0.50;;
30378;SDS011;17168;49.164;9.060;2023-09-19T01:28:44;1.05;;;0.25;;
30378;SDS011;17168;49.164;9.060;2023-09-19T01:31:31;1.10;;;0.63;;
30378;SDS011;17168;49.164;9.060;2023-09-19T01:34:07;4.05;;;0.45;;
30378;SDS011;17168;49.164;9.060;2023-09-19T01:36:40;3.78;;;0.70;;
30378;SDS011;17168;49.164;9.060;2023-09-19T01:39:13;3.05;;;0.52;;
30378;SDS011;17168;49.164;9.060;2023-09-19T01:41:58;2.55;;;0.45;;
30378;SDS011;17168;49.164;9.060;2023-09-19T01:44:40;1.73;;;0.60;;
30378;SDS011;17168;49.164;9.060;2023-09-19T01:47:26;1.38;;;0.22;;
30378;SDS011;17168;49.164;9.060;2023-09-19T01:50:08;1.58;;;0.30;;
30378;SDS011;17168;49.164;9.060;2023-09-19T01:52:47;0.77;;;0.10;;
30378;SDS011;17168;49.164;9.060;2023-09-19T01:55:23;3.47;;;0.70;;
30378;SDS011;17168;49.164;9.060;2023-09-19T01:58:01;0.80;;;0.20;;
30378;SDS011;17168;49.164;9.060;2023-09-19T02:03:14;0.57;;;0.25;;
30378;SDS011;17168;49.164;9.060;2023-09-19T02:05:48;2.40;;;0.65;;
30378;SDS011;17168;49.164;9.060;2023-09-19T02:08:22;1.23;;;0.60;;
30378;SDS011;17168;49.164;9.060;2023-09-19T02:10:57;0.80;;;0.15;;
30378;SDS011;17168;49.164;9.060;2023-09-19T02:13:29;2.28;;;0.43;;
30378;SDS011;17168;49.164;9.060;2023-09-19T02:16:03;1.48;;;0.30;;
30378;SDS011;17168;49.164;9.060;2023-09-19T02:18:41;0.85;;;0.35;;
30378;SDS011;17168;49.164;9.060;2023-09-19T02:21:13;1.85;;;0.35;;
30378;SDS011;17168;49.164;9.060;2023-09-19T02:23:45;3.60;;;0.40;;
30378;SDS011;17168;49.164;9.060;2023-09-19T02:26:18;2.95;;;0.20;;
30378;SDS011;17168;49.164;9.060;2023-09-19T02:28:51;3.38;;;0.40;;
30378;SDS011;17168;49.164;9.060;2023-09-19T02:31:24;0.65;;;0.25;;
30378;SDS011;17168;49.164;9.060;2023-09-19T02:33:59;2.15;;;0.52;;
30378;SDS011;17168;49.164;9.060;2023-09-19T02:36:31;1.20;;;0.30;;
30378;SDS011;17168;49.164;9.060;2023-09-19T02:39:03;1.15;;;0.25;;
30378;SDS011;17168;49.164;9.060;2023-09-19T02:41:37;0.75;;;0.40;;
30378;SDS011;17168;49.164;9.060;2023-09-19T02:44:09;1.38;;;0.50;;
30378;SDS011;17168;49.164;9.060;2023-09-19T02:46:42;0.60;;;0.20;;
30378;SDS011;17168;49.164;9.060;2023-09-19T02:49:16;2.15;;;0.50;;
30378;SDS011;17168;49.164;9.060;2023-09-19T02:51:52;0.75;;;0.20;;
30378;SDS011;17168;49.164;9.060;2023-09-19T02:54:24;2.85;;;0.38;;
30378;SDS011;17168;49.164;9.060;2023-09-19T02:56:56;2.40;;;0.38;;
30378;SDS011;17168;49.164;9.060;2023-09-19T02:59:31;0.17;;;0.00;;
30378;SDS011;17168;49.164;9.060;2023-09-19T03:02:03;2.53;;;0.20;;
30378;SDS011;17168;49.164;9.060;2023-09-19T03:04:39;1.20;;;0.45;;
30378;SDS011;17168;49.164;9.060;2023-09-19T03:07:14;2.13;;;0.52;;
30378;SDS011;17168;49.164;9.060;2023-09-19T03:09:46;1.45;;;0.30;;
30378;SDS011;17168;49.164;9.060;2023-09-19T03:12:18;0.85;;;0.32;;
30378;SDS011;17168;49.164;9.060;2023-09-19T03:14:51;1.23;;;0.68;;
30378;SDS011;17168;49.164;9.060;2023-09-19T03:17:23;2.17;;;0.20;;
30378;SDS011;17168;49.164;9.060;2023-09-19T03:19:58;3.60;;;0.50;;
30378;SDS011;17168;49.164;9.060;2023-09-19T03:22:30;0.77;;;0.22;;
30378;SDS011;17168;49.164;9.060;2023-09-19T03:25:03;3.33;;;0.40;;
30378;SDS011;17168;49.164;9.060;2023-09-19T03:27:39;1.73;;;0.32;;
30378;SDS011;17168;49.164;9.060;2023-09-19T03:30:12;0.90;;;0.28;;
30378;SDS011;17168;49.164;9.060;2023-09-19T03:32:45;1.50;;;0.40;;
30378;SDS011;17168;49.164;9.060;2023-09-19T03:35:21;1.50;;;0.40;;
30378;SDS011;17168;49.164;9.060;2023-09-19T03:37:53;2.70;;;0.28;;
30378;SDS011;17168;49.164;9.060;2023-09-19T03:40:25;1.00;;;0.30;;
30378;SDS011;17168;49.164;9.060;2023-09-19T03:43:00;1.33;;;0.50;;
30378;SDS011;17168;49.164;9.060;2023-09-19T03:45:33;1.83;;;0.40;;
30378;SDS011;17168;49.164;9.060;2023-09-19T03:48:08;2.25;;;0.63;;
30378;SDS011;17168;49.164;9.060;2023-09-19T03:50:43;1.75;;;0.20;;
30378;SDS011;17168;49.164;9.060;2023-09-19T03:53:16;1.98;;;0.40;;
30378;SDS011;17168;49.164;9.060;2023-09-19T03:55:48;2.35;;;0.40;;
30378;SDS011;17168;49.164;9.060;2023-09-19T03:58:20;2.22;;;0.80;;
30378;SDS011;17168;49.164;9.060;2023-09-19T04:00:54;1.67;;;0.35;;
30378;SDS011;17168;49.164;9.060;2023-09-19T04:03:27;1.38;;;0.52;;
30378;SDS011;17168;49.164;9.060;2023-09-19T04:06:09;1.65;;;0.50;;
30378;SDS011;17168;49.164;9.060;2023-09-19T04:08:42;1.67;;;0.50;;
30378;SDS011;17168;49.164;9.060;2023-09-19T04:11:15;0.90;;;0.30;;
30378;SDS011;17168;49.164;9.060;2023-09-19T04:13:48;2.03;;;0.93;;
30378;SDS011;17168;49.164;9.060;2023-09-19T04:16:20;2.55;;;0.73;;
30378;SDS011;17168;49.164;9.060;2023-09-19T04:18:53;2.70;;;1.20;;
30378;SDS011;17168;49.164;9.060;2023-09-19T04:21:28;2.22;;;0.90;;
30378;SDS011;17168;49.164;9.060;2023-09-19T04:24:00;3.05;;;1.42;;
30378;SDS011;17168;49.164;9.060;2023-09-19T04:26:33;3.08;;;0.80;;
30378;SDS011;17168;49.164;9.060;2023-09-19T04:29:05;1.45;;;0.80;;
30378;SDS011;17168;49.164;9.060;2023-09-19T04:31:38;2.28;;;0.68;;
30378;SDS011;17168;49.164;9.060;2023-09-19T04:34:12;2.28;;;0.50;;
30378;SDS011;17168;49.164;9.060;2023-09-19T04:36:51;1.35;;;0.32;;
30378;SDS011;17168;49.164;9.060;2023-09-19T04:39:24;2.60;;;0.60;;
30378;SDS011;17168;49.164;9.060;2023-09-19T04:41:57;2.70;;;0.82;;
30378;SDS011;17168;49.164;9.060;2023-09-19T04:44:30;2.38;;;0.90;;
30378;SDS011;17168;49.164;9.060;2023-09-19T04:47:02;5.68;;;1.00;;
30378;SDS011;17168;49.164;9.060;2023-09-19T04:49:35;2.50;;;1.00;;
30378;SDS011;17168;49.164;9.060;2023-09-19T04:52:18;2.28;;;0.68;;
30378;SDS011;17168;49.164;9.060;2023-09-19T04:54:53;3.38;;;1.00;;
30378;SDS011;17168;49.164;9.060;2023-09-19T04:57:26;1.23;;;0.70;;
30378;SDS011;17168;49.164;9.060;2023-09-19T04:59:59;2.08;;;0.70;;
30378;SDS011;17168;49.164;9.060;2023-09-19T05:02:32;2.67;;;0.52;;
30378;SDS011;17168;49.164;9.060;2023-09-19T05:05:06;5.68;;;1.45;;
30378;SDS011;17168;49.164;9.060;2023-09-19T05:07:42;1.17;;;0.30;;
30378;SDS011;17168;49.164;9.060;2023-09-19T05:10:18;3.20;;;0.77;;
30378;SDS011;17168;49.164;9.060;2023-09-19T05:12:52;3.90;;;1.23;;
30378;SDS011;17168;49.164;9.060;2023-09-19T05:15:25;1.95;;;0.70;;
30378;SDS011;17168;49.164;9.060;2023-09-19T05:17:57;2.22;;;0.82;;
30378;SDS011;17168;49.164;9.060;2023-09-19T05:20:32;1.75;;;0.90;;
30378;SDS011;17168;49.164;9.060;2023-09-19T05:23:09;3.47;;;0.88;;
30378;SDS011;17168;49.164;9.060;2023-09-19T05:25:45;2.42;;;1.10;;
30378;SDS011;17168;49.164;9.060;2023-09-19T05:28:20;3.22;;;1.17;;
30378;SDS011;17168;49.164;9.060;2023-09-19T05:30:53;4.18;;;0.82;;
30378;SDS011;17168;49.164;9.060;2023-09-19T05:33:25;3.08;;;0.98;;
30378;SDS011;17168;49.164;9.060;2023-09-19T05:35:59;3.20;;;1.35;;
30378;SDS011;17168;49.164;9.060;2023-09-19T05:38:34;3.97;;;1.33;;
30378;SDS011;17168;49.164;9.060;2023-09-19T05:41:06;2.33;;;1.38;;
30378;SDS011;17168;49.164;9.060;2023-09-19T05:43:39;3.22;;;1.20;;
30378;SDS011;17168;49.164;9.060;2023-09-19T05:46:13;2.58;;;1.65;;
30378;SDS011;17168;49.164;9.060;2023-09-19T05:48:47;3.45;;;2.15;;
30378;SDS011;17168;49.164;9.060;2023-09-19T05:51:23;3.65;;;2.42;;
30378;SDS011;17168;49.164;9.060;2023-09-19T05:53:58;5.90;;;2.50;;
30378;SDS011;17168;49.164;9.060;2023-09-19T05:56:30;3.67;;;1.70;;
30378;SDS011;17168;49.164;9.060;2023-09-19T05:59:05;2.30;;;1.52;;
30378;SDS011;17168;49.164;9.060;2023-09-19T06:01:37;3.03;;;1.48;;
30378;SDS011;17168;49.164;9.060;2023-09-19T06:04:10;5.28;;;2.30;;
30378;SDS011;17168;49.164;9.060;2023-09-19T06:06:42;3.30;;;1.75;;
30378;SDS011;17168;49.164;9.060;2023-09-19T06:09:17;4.05;;;1.77;;
30378;SDS011;17168;49.164;9.060;2023-09-19T06:11:54;2.50;;;1.58;;
30378;SDS011;17168;49.164;9.060;2023-09-19T06:14:27;4.38;;;2.20;;
30378;SDS011;17168;49.164;9.060;2023-09-19T06:16:59;3.80;;;1.70;;
30378;SDS011;17168;49.164;9.060;2023-09-19T06:19:32;4.15;;;1.40;;
30378;SDS011;17168;49.164;9.060;2023-09-19T06:22:04;4.07;;;1.67;;
30378;SDS011;17168;49.164;9.060;2023-09-19T06:24:39;3.00;;;1.67;;
30378;SDS011;17168;49.164;9.060;2023-09-19T06:27:11;2.45;;;1.70;;
30378;SDS011;17168;49.164;9.060;2023-09-19T06:29:44;5.80;;;3.13;;
30378;SDS011;17168;49.164;9.060;2023-09-19T06:32:17;6.72;;;2.72;;
30378;SDS011;17168;49.164;9.060;2023-09-19T06:34:51;5.20;;;2.58;;
30378;SDS011;17168;49.164;9.060;2023-09-19T06:37:26;4.28;;;3.00;;
30378;SDS011;17168;49.164;9.060;2023-09-19T06:40:02;2.92;;;1.67;;
30378;SDS011;17168;49.164;9.060;2023-09-19T06:42:37;3.40;;;2.95;;
30378;SDS011;17168;49.164;9.060;2023-09-19T06:45:09;5.57;;;2.47;;
30378;SDS011;17168;49.164;9.060;2023-09-19T06:47:49;3.45;;;1.92;;
30378;SDS011;17168;49.164;9.060;2023-09-19T06:50:23;2.10;;;0.95;;
30378;SDS011;17168;49.164;9.060;2023-09-19T06:52:56;3.60;;;1.70;;
30378;SDS011;17168;49.164;9.060;2023-09-19T06:55:33;3.80;;;2.55;;
30378;SDS011;17168;49.164;9.060;2023-09-19T06:58:06;4.13;;;2.25;;
30378;SDS011;17168;49.164;9.060;2023-09-19T07:00:39;3.50;;;2.20;;
30378;SDS011;17168;49.164;9.060;2023-09-19T07:03:13;5.45;;;2.85;;
30378;SDS011;17168;49.164;9.060;2023-09-19T07:05:47;4.47;;;2.13;;
30378;SDS011;17168;49.164;9.060;2023-09-19T07:08:19;3.40;;;1.77;;
30378;SDS011;17168;49.164;9.060;2023-09-19T07:10:55;4.00;;;2.10;;
30378;SDS011;17168;49.164;9.060;2023-09-19T07:13:28;4.63;;;1.70;;
30378;SDS011;17168;49.164;9.060;2023-09-19T07:16:00;3.17;;;1.63;;
30378;SDS011;17168;49.164;9.060;2023-09-19T07:18:33;2.63;;;1.30;;
30378;SDS011;17168;49.164;9.060;2023-09-19T07:21:05;2.80;;;1.40;;
30378;SDS011;17168;49.164;9.060;2023-09-19T07:23:37;3.55;;;1.63;;
30378;SDS011;17168;49.164;9.060;2023-09-19T07:26:13;1.85;;;1.10;;
30378;SDS011;17168;49.164;9.060;2023-09-19T07:28:45;4.40;;;0.80;;
30378;SDS011;17168;49.164;9.060;2023-09-19T07:31:17;1.38;;;0.80;;
30378;SDS011;17168;49.164;9.060;2023-09-19T07:33:50;2.00;;;0.70;;
30378;SDS011;17168;49.164;9.060;2023-09-19T07:36:22;2.88;;;1.25;;
30378;SDS011;17168;49.164;9.060;2023-09-19T07:38:56;1.67;;;0.50;;
30378;SDS011;17168;49.164;9.060;2023-09-19T07:41:50;2.75;;;0.85;;
30378;SDS011;17168;49.164;9.060;2023-09-19T07:44:22;3.40;;;0.95;;
30378;SDS011;17168;49.164;9.060;2023-09-19T07:46:57;3.15;;;0.60;;
30378;SDS011;17168;49.164;9.060;2023-09-19T07:49:29;1.75;;;0.70;;
30378;SDS011;17168;49.164;9.060;2023-09-19T07:52:02;6.93;;;0.82;;
30378;SDS011;17168;49.164;9.060;2023-09-19T07:54:34;1.38;;;0.43;;
30378;SDS011;17168;49.164;9.060;2023-09-19T07:57:10;0.85;;;0.52;;
30378;SDS011;17168;49.164;9.060;2023-09-19T07:59:43;0.75;;;0.30;;
30378;SDS011;17168;49.164;9.060;2023-09-19T08:02:17;3.42;;;0.82;;
30378;SDS011;17168;49.164;9.060;2023-09-19T08:04:49;1.45;;;0.70;;
30378;SDS011;17168;49.164;9.060;2023-09-19T08:07:24;1.05;;;0.60;;
30378;SDS011;17168;49.164;9.060;2023-09-19T08:09:56;2.08;;;0.88;;
30378;SDS011;17168;49.164;9.060;2023-09-19T08:12:32;1.05;;;0.60;;
30378;SDS011;17168;49.164;9.060;2023-09-19T08:15:07;4.90;;;1.60;;
30378;SDS011;17168;49.164;9.060;2023-09-19T08:17:41;4.05;;;0.75;;
30378;SDS011;17168;49.164;9.060;2023-09-19T08:20:14;2.30;;;0.93;;
30378;SDS011;17168;49.164;9.060;2023-09-19T08:22:51;3.00;;;1.20;;
30378;SDS011;17168;49.164;9.060;2023-09-19T08:25:26;2.88;;;0.50;;
30378;SDS011;17168;49.164;9.060;2023-09-19T08:28:03;2.63;;;0.63;;
30378;SDS011;17168;49.164;9.060;2023-09-19T08:30:39;4.05;;;0.77;;
30378;SDS011;17168;49.164;9.060;2023-09-19T08:33:12;1.63;;;0.95;;
30378;SDS011;17168;49.164;9.060;2023-09-19T08:35:46;0.95;;;0.32;;
30378;SDS011;17168;49.164;9.060;2023-09-19T08:38:19;2.42;;;0.30;;
30378;SDS011;17168;49.164;9.060;2023-09-19T08:40:52;1.67;;;0.63;;
30378;SDS011;17168;49.164;9.060;2023-09-19T08:43:27;2.67;;;0.75;;
30378;SDS011;17168;49.164;9.060;2023-09-19T08:46:03;2.13;;;0.63;;
30378;SDS011;17168;49.164;9.060;2023-09-19T08:48:45;1.05;;;0.38;;
30378;SDS011;17168;49.164;9.060;2023-09-19T08:51:21;3.45;;;0.75;;
30378;SDS011;17168;49.164;9.060;2023-09-19T08:54:01;2.38;;;0.30;;
30378;SDS011;17168;49.164;9.060;2023-09-19T08:56:38;0.60;;;0.25;;
30378;SDS011;17168;49.164;9.060;2023-09-19T08:59:14;1.67;;;0.65;;
30378;SDS011;17168;49.164;9.060;2023-09-19T09:01:47;2.25;;;1.08;;
30378;SDS011;17168;49.164;9.060;2023-09-19T09:04:22;1.13;;;0.50;;
30378;SDS011;17168;49.164;9.060;2023-09-19T09:06:57;2.30;;;0.57;;
30378;SDS011;17168;49.164;9.060;2023-09-19T09:09:30;3.08;;;0.95;;
30378;SDS011;17168;49.164;9.060;2023-09-19T09:12:03;0.95;;;0.20;;
30378;SDS011;17168;49.164;9.060;2023-09-19T09:14:39;3.92;;;0.88;;
30378;SDS011;17168;49.164;9.060;2023-09-19T09:17:12;1.92;;;0.43;;
30378;SDS011;17168;49.164;9.060;2023-09-19T09:19:45;0.90;;;0.25;;
30378;SDS011;17168;49.164;9.060;2023-09-19T09:22:18;3.60;;;0.43;;
30378;SDS011;17168;49.164;9.060;2023-09-19T09:24:56;2.08;;;0.70;;
30378;SDS011;17168;49.164;9.060;2023-09-19T09:27:35;3.38;;;0.77;;
30378;SDS011;17168;49.164;9.060;2023-09-19T09:30:10;0.80;;;0.20;;
30378;SDS011;17168;49.164;9.060;2023-09-19T09:33:11;2.22;;;0.80;;
30378;SDS011;17168;49.164;9.060;2023-09-19T09:35:52;0.73;;;0.30;;
30378;SDS011;17168;49.164;9.060;2023-09-19T09:38:28;3.47;;;0.35;;
30378;SDS011;17168;49.164;9.060;2023-09-19T09:41:04;3.75;;;0.50;;
30378;SDS011;17168;49.164;9.060;2023-09-19T09:43:37;2.92;;;0.50;;
30378;SDS011;17168;49.164;9.060;2023-09-19T09:46:15;0.40;;;0.25;;
30378;SDS011;17168;49.164;9.060;2023-09-19T09:48:58;1.05;;;0.47;;
30378;SDS011;17168;49.164;9.060;2023-09-19T09:51:58;6.80;;;0.95;;
30378;SDS011;17168;49.164;9.060;2023-09-19T09:54:32;1.63;;;0.28;;
30378;SDS011;17168;49.164;9.060;2023-09-19T09:57:09;1.58;;;0.40;;
30378;SDS011;17168;49.164;9.060;2023-09-19T09:59:47;2.70;;;0.52;;
30378;SDS011;17168;49.164;9.060;2023-09-19T10:02:28;1.98;;;0.50;;
30378;SDS011;17168;49.164;9.060;2023-09-19T10:05:10;2.17;;;0.65;;
30378;SDS011;17168;49.164;9.060;2023-09-19T10:08:10;1.52;;;0.30;;
30378;SDS011;17168;49.164;9.060;2023-09-19T10:10:44;2.30;;;0.40;;
30378;SDS011;17168;49.164;9.060;2023-09-19T10:13:26;3.30;;;0.47;;
30378;SDS011;17168;49.164;9.060;2023-09-19T10:16:04;2.60;;;0.70;;
30378;SDS011;17168;49.164;9.060;2023-09-19T10:18:44;3.20;;;0.45;;
30378;SDS011;17168;49.164;9.060;2023-09-19T10:21:21;3.25;;;0.60;;
30378;SDS011;17168;49.164;9.060;2023-09-19T10:23:53;3.05;;;0.85;;
30378;SDS011;17168;49.164;9.060;2023-09-19T10:26:28;2.40;;;0.68;;
30378;SDS011;17168;49.164;9.060;2023-09-19T10:29:02;1.92;;;0.10;;
30378;SDS011;17168;49.164;9.060;2023-09-19T10:31:39;1.98;;;0.20;;
30378;SDS011;17168;49.164;9.060;2023-09-19T10:34:21;2.35;;;0.20;;
30378;SDS011;17168;49.164;9.060;2023-09-19T10:36:55;0.88;;;0.32;;
30378;SDS011;17168;49.164;9.060;2023-09-19T10:39:28;0.90;;;0.20;;
30378;SDS011;17168;49.164;9.060;2023-09-19T10:42:03;1.75;;;0.40;;
30378;SDS011;17168;49.164;9.060;2023-09-19T10:44:40;1.40;;;0.32;;
30378;SDS011;17168;49.164;9.060;2023-09-19T10:47:15;1.50;;;0.47;;
30378;SDS011;17168;49.164;9.060;2023-09-19T10:49:53;1.42;;;0.50;;
30378;SDS011;17168;49.164;9.060;2023-09-19T10:52:26;1.98;;;0.28;;
30378;SDS011;17168;49.164;9.060;2023-09-19T10:55:00;1.08;;;0.45;;
30378;SDS011;17168;49.164;9.060;2023-09-19T10:57:34;1.80;;;0.20;;
30378;SDS011;17168;49.164;9.060;2023-09-19T11:00:06;2.85;;;0.40;;
30378;SDS011;17168;49.164;9.060;2023-09-19T11:03:18;3.03;;;0.20;;
30378;SDS011;17168;49.164;9.060;2023-09-19T11:06:04;2.65;;;0.30;;
30378;SDS011;17168;49.164;9.060;2023-09-19T11:08:50;1.10;;;0.00;;
30378;SDS011;17168;49.164;9.060;2023-09-19T11:11:40;1.70;;;0.32;;
30378;SDS011;17168;49.164;9.060;2023-09-19T11:14:14;1.70;;;0.28;;
30378;SDS011;17168;49.164;9.060;2023-09-19T11:25:54;0.77;;;0.20;;
30378;SDS011;17168;49.164;9.060;2023-09-19T11:28:27;1.83;;;0.15;;
30378;SDS011;17168;49.164;9.060;2023-09-19T11:40:14;2.58;;;0.25;;
30378;SDS011;17168;49.164;9.060;2023-09-19T11:42:49;2.63;;;0.60;;
30378;SDS011;17168;49.164;9.060;2023-09-19T11:48:18;1.38;;;0.20;;
30378;SDS011;17168;49.164;9.060;2023-09-19T11:50:51;1.95;;;0.10;;
30378;SDS011;17168;49.164;9.060;2023-09-19T11:53:24;1.75;;;0.20;;
30378;SDS011;17168;49.164;9.060;2023-09-19T11:56:08;0.60;;;0.28;;
30378;SDS011;17168;49.164;9.060;2023-09-19T11:58:42;0.52;;;0.15;;
30378;SDS011;17168;49.164;9.060;2023-09-19T12:01:19;1.05;;;0.43;;
30378;SDS011;17168;49.164;9.060;2023-09-19T12:03:56;0.45;;;0.22;;
30378;SDS011;17168;49.164;9.060;2023-09-19T12:06:30;1.00;;;0.40;;
30378;SDS011;17168;49.164;9.060;2023-09-19T12:09:05;0.68;;;0.30;;
30378;SDS011;17168;49.164;9.060;2023-09-19T12:11:46;1.20;;;0.30;;
30378;SDS011;17168;49.164;9.060;2023-09-19T12:14:21;1.48;;;0.30;;
30378;SDS011;17168;49.164;9.060;2023-09-19T12:16:54;1.95;;;0.38;;
30378;SDS011;17168;49.164;9.060;2023-09-19T12:19:27;1.88;;;0.47;;
30378;SDS011;17168;49.164;9.060;2023-09-19T12:22:01;1.98;;;0.30;;
30378;SDS011;17168;49.164;9.060;2023-09-19T12:24:37;1.75;;;0.38;;
30378;SDS011;17168;49.164;9.060;2023-09-19T12:27:16;1.88;;;0.40;;
30378;SDS011;17168;49.164;9.060;2023-09-19T12:29:49;1.05;;;0.52;;
30378;SDS011;17168;49.164;9.060;2023-09-19T12:32:33;2.88;;;0.65;;
30378;SDS011;17168;49.164;9.060;2023-09-19T12:35:06;1.73;;;0.15;;
30378;SDS011;17168;49.164;9.060;2023-09-19T12:37:51;2.50;;;0.63;;
30378;SDS011;17168;49.164;9.060;2023-09-19T12:40:27;0.60;;;0.10;;
30378;SDS011;17168;49.164;9.060;2023-09-19T12:43:03;0.80;;;0.35;;
30378;SDS011;17168;49.164;9.060;2023-09-19T12:45:37;1.85;;;0.30;;
30378;SDS011;17168;49.164;9.060;2023-09-19T12:48:23;2.67;;;0.60;;
30378;SDS011;17168;49.164;9.060;2023-09-19T12:51:05;0.73;;;0.30;;
30378;SDS011;17168;49.164;9.060;2023-09-19T12:53:40;1.77;;;0.10;;
30378;SDS011;17168;49.164;9.060;2023-09-19T12:56:18;1.20;;;0.40;;
30378;SDS011;17168;49.164;9.060;2023-09-19T12:58:56;1.02;;;0.40;;
30378;SDS011;17168;49.164;9.060;2023-09-19T13:01:38;0.90;;;0.20;;
30378;SDS011;17168;49.164;9.060;2023-09-19T13:04:22;0.70;;;0.47;;
30378;SDS011;17168;49.164;9.060;2023-09-19T13:07:01;0.98;;;0.25;;
30378;SDS011;17168;49.164;9.060;2023-09-19T13:09:34;1.10;;;0.25;;
30378;SDS011;17168;49.164;9.060;2023-09-19T13:15:12;0.80;;;0.55;;
30378;SDS011;17168;49.164;9.060;2023-09-19T13:17:48;1.55;;;0.30;;
30378;SDS011;17168;49.164;9.060;2023-09-19T13:20:24;0.57;;;0.20;;
30378;SDS011;17168;49.164;9.060;2023-09-19T13:23:00;2.53;;;0.20;;
30378;SDS011;17168;49.164;9.060;2023-09-19T13:25:41;0.95;;;0.43;;
30378;SDS011;17168;49.164;9.060;2023-09-19T13:28:15;1.23;;;0.30;;
30378;SDS011;17168;49.164;9.060;2023-09-19T13:30:50;0.70;;;0.25;;
30378;SDS011;17168;49.164;9.060;2023-09-19T13:33:22;1.58;;;0.40;;
30378;SDS011;17168;49.164;9.060;2023-09-19T13:35:54;1.77;;;0.63;;
30378;SDS011;17168;49.164;9.060;2023-09-19T13:38:27;1.30;;;0.30;;
30378;SDS011;17168;49.164;9.060;2023-09-19T13:41:00;1.92;;;0.52;;
30378;SDS011;17168;49.164;9.060;2023-09-19T13:43:33;1.63;;;0.50;;
30378;SDS011;17168;49.164;9.060;2023-09-19T13:46:08;2.70;;;0.75;;
30378;SDS011;17168;49.164;9.060;2023-09-19T13:48:46;1.25;;;0.57;;
30378;SDS011;17168;49.164;9.060;2023-09-19T13:51:21;2.45;;;0.60;;
30378;SDS011;17168;49.164;9.060;2023-09-19T13:53:54;0.82;;;0.22;;
30378;SDS011;17168;49.164;9.060;2023-09-19T13:56:26;1.52;;;0.25;;
30378;SDS011;17168;49.164;9.060;2023-09-19T13:59:03;1.95;;;0.47;;
30378;SDS011;17168;49.164;9.060;2023-09-19T14:01:38;0.65;;;0.40;;
30378;SDS011;17168;49.164;9.060;2023-09-19T14:04:11;1.05;;;0.20;;
30378;SDS011;17168;49.164;9.060;2023-09-19T14:06:43;2.60;;;0.47;;
30378;SDS011;17168;49.164;9.060;2023-09-19T14:09:17;2.38;;;0.38;;
30378;SDS011;17168;49.164;9.060;2023-09-19T14:11:51;2.92;;;0.40;;
30378;SDS011;17168;49.164;9.060;2023-09-19T14:14:24;1.33;;;0.30;;
30378;SDS011;17168;49.164;9.060;2023-09-19T14:16:59;0.77;;;0.40;;
30378;SDS011;17168;49.164;9.060;2023-09-19T14:19:34;1.15;;;0.35;;
30378;SDS011;17168;49.164;9.060;2023-09-19T14:22:09;2.08;;;0.30;;
30378;SDS011;17168;49.164;9.060;2023-09-19T14:24:45;1.95;;;0.80;;
30378;SDS011;17168;49.164;9.060;2023-09-19T14:27:18;3.75;;;0.40;;
30378;SDS011;17168;49.164;9.060;2023-09-19T14:29:50;0.60;;;0.35;;
30378;SDS011;17168;49.164;9.060;2023-09-19T14:32:25;1.42;;;0.73;;
30378;SDS011;17168;49.164;9.060;2023-09-19T14:34:58;1.55;;;0.30;;
30378;SDS011;17168;49.164;9.060;2023-09-19T14:37:30;0.80;;;0.20;;
30378;SDS011;17168;49.164;9.060;2023-09-19T14:40:03;2.58;;;0.70;;
30378;SDS011;17168;49.164;9.060;2023-09-19T14:42:40;1.00;;;0.25;;
30378;SDS011;17168;49.164;9.060;2023-09-19T14:45:12;0.85;;;0.20;;
30378;SDS011;17168;49.164;9.060;2023-09-19T14:47:50;1.05;;;0.40;;
30378;SDS011;17168;49.164;9.060;2023-09-19T14:50:27;1.65;;;0.50;;
30378;SDS011;17168;49.164;9.060;2023-09-19T14:53:01;0.95;;;0.32;;
30378;SDS011;17168;49.164;9.060;2023-09-19T14:55:36;1.42;;;0.30;;
30378;SDS011;17168;49.164;9.060;2023-09-19T14:58:08;1.30;;;0.25;;
30378;SDS011;17168;49.164;9.060;2023-09-19T15:00:41;0.80;;;0.57;;
30378;SDS011;17168;49.164;9.060;2023-09-19T15:03:16;3.22;;;0.90;;
30378;SDS011;17168;49.164;9.060;2023-09-19T15:05:49;2.40;;;0.47;;
30378;SDS011;17168;49.164;9.060;2023-09-19T15:08:23;1.10;;;0.50;;
30378;SDS011;17168;49.164;9.060;2023-09-19T15:10:57;0.60;;;0.30;;
30378;SDS011;17168;49.164;9.060;2023-09-19T15:13:30;1.17;;;0.35;;
30378;SDS011;17168;49.164;9.060;2023-09-19T15:16:03;1.27;;;0.38;;
30378;SDS011;17168;49.164;9.060;2023-09-19T15:18:43;1.48;;;0.40;;
30378;SDS011;17168;49.164;9.060;2023-09-19T15:21:18;1.90;;;0.28;;
30378;SDS011;17168;49.164;9.060;2023-09-19T15:23:50;2.05;;;0.60;;
30378;SDS011;17168;49.164;9.060;2023-09-19T15:26:22;1.75;;;0.30;;
30378;SDS011;17168;49.164;9.060;2023-09-19T15:28:57;1.90;;;0.60;;
30378;SDS011;17168;49.164;9.060;2023-09-19T15:31:29;1.02;;;0.32;;
30378;SDS011;17168;49.164;9.060;2023-09-19T15:34:04;0.70;;;0.35;;
30378;SDS011;17168;49.164;9.060;2023-09-19T15:36:38;1.00;;;0.30;;
30378;SDS011;17168;49.164;9.060;2023-09-19T15:39:11;0.50;;;0.32;;
30378;SDS011;17168;49.164;9.060;2023-09-19T15:41:44;0.75;;;0.20;;
30378;SDS011;17168;49.164;9.060;2023-09-19T15:44:21;1.10;;;0.43;;
30378;SDS011;17168;49.164;9.060;2023-09-19T15:46:55;1.92;;;0.75;;
30378;SDS011;17168;49.164;9.060;2023-09-19T15:49:31;0.90;;;0.20;;
30378;SDS011;17168;49.164;9.060;2023-09-19T15:52:03;0.75;;;0.13;;
30378;SDS011;17168;49.164;9.060;2023-09-19T15:54:36;3.08;;;1.23;;
30378;SDS011;17168;49.164;9.060;2023-09-19T15:57:13;0.90;;;0.22;;
30378;SDS011;17168;49.164;9.060;2023-09-19T15:59:45;0.57;;;0.57;;
30378;SDS011;17168;49.164;9.060;2023-09-19T16:02:18;0.90;;;0.20;;
30378;SDS011;17168;49.164;9.060;2023-09-19T16:04:53;0.40;;;0.28;;
30378;SDS011;17168;49.164;9.060;2023-09-19T16:07:29;0.88;;;0.70;;
30378;SDS011;17168;49.164;9.060;2023-09-19T16:10:19;8.60;;;3.20;;